Time;durP1;ratioP1;P1;durP2;ratioP2;P2;SDS_P1;SDS_P2;PMS_P1;PMS_P2;Temp;Humidity;BMP_temperature;BMP_pressure;BME280_temperature;BME280_humidity;BME280_pressure;Samples;Min_cycle;Max_cycle;Signal;HPM_P1;HPM_P2
2022/12/02 00:01:47;;;;;;;35.10;20.67;;;4.00;99.90;;;;;;5020637;28;20492;-74
2022/12/02 00:04:30;;;;;;;34.53;19.67;;;3.90;99.90;;;;;;5042482;28;20403;-74
2022/12/02 00:06:58;;;;;;;34.75;19.85;;;3.90;99.90;;;;;;5032710;28;20401;-73
2022/12/02 00:09:33;;;;;;;33.30;20.77;;;3.90;99.90;;;;;;5040871;28;20971;-74
2022/12/02 00:12:10;;;;;;;38.00;21.05;;;3.90;99.90;;;;;;5027895;28;20411;-74
2022/12/02 00:14:35;;;;;;;38.47;21.85;;;3.90;99.90;;;;;;5047560;28;20414;-73
2022/12/02 00:17:01;;;;;;;39.43;21.87;;;3.80;99.90;;;;;;5034400;28;20410;-74
2022/12/02 00:19:26;;;;;;;38.90;22.17;;;3.80;99.90;;;;;;5038488;28;20459;-73
2022/12/02 00:21:53;;;;;;;39.50;21.40;;;3.80;99.90;;;;;;5029357;28;20453;-74
2022/12/02 00:24:19;;;;;;;42.20;22.27;;;3.80;99.90;;;;;;5043340;28;20409;-74
2022/12/02 00:26:44;;;;;;;43.08;22.38;;;3.80;99.90;;;;;;5053340;28;20431;-74
2022/12/02 00:29:10;;;;;;;41.93;22.67;;;3.70;99.90;;;;;;5054322;28;20416;-74
2022/12/02 00:31:36;;;;;;;40.97;22.67;;;3.80;99.90;;;;;;5050665;28;20402;-73
2022/12/02 00:34:02;;;;;;;43.70;23.40;;;3.80;99.90;;;;;;5034032;28;20497;-74
2022/12/02 00:36:28;;;;;;;45.83;23.08;;;3.80;99.90;;;;;;5049301;28;20416;-74
2022/12/02 00:38:55;;;;;;;45.70;23.80;;;3.80;99.90;;;;;;5036593;28;20433;-73
2022/12/02 00:41:20;;;;;;;43.50;23.20;;;3.70;99.90;;;;;;5039622;28;20398;-73
2022/12/02 00:46:33;;;;;;;46.70;24.13;;;3.70;99.90;;;;;;5017061;28;20415;-73
2022/12/02 00:49:05;;;;;;;47.90;24.43;;;3.70;99.90;;;;;;5027917;28;20447;-74
2022/12/02 00:51:31;;;;;;;47.70;24.07;;;3.70;99.90;;;;;;5048717;28;20464;-73
2022/12/02 00:53:57;;;;;;;46.60;24.97;;;3.70;99.90;;;;;;5034790;28;20920;-73
2022/12/02 00:56:23;;;;;;;46.78;23.40;;;3.70;99.90;;;;;;5033941;28;20420;-74
2022/12/02 00:58:49;;;;;;;47.00;24.63;;;3.70;99.90;;;;;;5041711;28;20463;-73
2022/12/02 01:01:14;;;;;;;49.28;24.83;;;3.60;99.90;;;;;;5029574;28;20452;-73
2022/12/02 01:03:40;;;;;;;48.87;25.13;;;3.60;99.90;;;;;;5025916;28;20405;-73
2022/12/02 01:06:06;;;;;;;47.80;24.07;;;3.70;99.90;;;;;;5017809;28;20414;-73
2022/12/02 01:08:32;;;;;;;43.47;22.60;;;3.70;99.90;;;;;;5031564;28;20431;-74
2022/12/02 01:10:58;;;;;;;43.88;23.70;;;3.70;99.90;;;;;;5038816;28;20531;-73
2022/12/02 01:13:25;;;;;;;47.83;24.13;;;3.70;99.90;;;;;;5054118;28;20768;-73
2022/12/02 01:15:50;;;;;;;47.58;24.13;;;3.70;99.90;;;;;;5040279;28;20421;-74
2022/12/02 01:18:17;;;;;;;48.13;25.42;;;3.70;99.90;;;;;;5033038;28;20460;-73
2022/12/02 01:20:43;;;;;;;48.90;24.75;;;3.70;99.90;;;;;;5033800;28;20407;-73
2022/12/02 01:23:08;;;;;;;49.75;24.30;;;3.60;99.90;;;;;;5004061;28;20412;-72
2022/12/02 01:25:34;;;;;;;50.95;25.75;;;3.60;99.90;;;;;;5053923;28;20447;-73
2022/12/02 01:28:00;;;;;;;47.53;24.23;;;3.70;99.90;;;;;;5042577;28;20743;-73
2022/12/02 01:30:25;;;;;;;50.85;25.70;;;3.70;99.90;;;;;;5050539;28;20442;-72
2022/12/02 01:32:51;;;;;;;47.47;25.20;;;3.70;99.90;;;;;;5041683;28;20411;-73
2022/12/02 01:35:17;;;;;;;51.17;25.83;;;3.70;99.90;;;;;;5035325;28;20401;-72
2022/12/02 01:37:43;;;;;;;50.13;25.10;;;3.70;99.90;;;;;;5050442;28;20410;-73
2022/12/02 01:40:10;;;;;;;51.92;26.00;;;3.70;99.90;;;;;;5037734;28;20780;-72
2022/12/02 01:42:36;;;;;;;49.05;25.88;;;3.70;99.90;;;;;;5038403;28;20418;-72
2022/12/02 01:45:03;;;;;;;48.97;26.00;;;3.70;99.90;;;;;;5025331;28;21082;-73
2022/12/02 01:47:28;;;;;;;47.67;25.50;;;3.70;99.90;;;;;;5030701;28;20493;-73
2022/12/02 01:49:54;;;;;;;47.10;25.47;;;3.70;99.90;;;;;;5014475;28;20433;-72
2022/12/02 01:52:20;;;;;;;50.35;26.02;;;3.60;99.90;;;;;;5030655;28;20568;-72
2022/12/02 01:54:46;;;;;;;44.17;25.00;;;3.60;99.90;;;;;;5031577;28;21161;-72
2022/12/02 01:57:14;;;;;;;45.15;25.40;;;3.60;99.90;;;;;;5030973;28;20417;-72
2022/12/02 01:59:42;;;;;;;43.70;23.63;;;3.60;99.90;;;;;;5039283;28;20439;-74
2022/12/02 02:02:27;;;;;;;42.53;23.00;;;3.60;99.90;;;;;;5037356;28;20407;-73
2022/12/02 02:05:02;;;;;;;39.33;21.95;;;3.60;99.90;;;;;;5012998;28;20412;-73
2022/12/02 02:07:29;;;;;;;36.47;20.55;;;3.60;99.90;;;;;;5045058;28;20508;-73
2022/12/02 02:09:55;;;;;;;33.90;18.88;;;3.60;99.90;;;;;;5031315;28;20413;-73
2022/12/02 02:12:21;;;;;;;31.67;19.23;;;3.60;99.90;;;;;;5046450;28;20395;-73
2022/12/02 02:14:47;;;;;;;35.40;19.33;;;3.50;99.90;;;;;;5044580;28;20426;-73
2022/12/02 02:17:12;;;;;;;34.45;18.45;;;3.60;99.90;;;;;;5025696;28;20423;-73
2022/12/02 02:19:38;;;;;;;35.30;19.00;;;3.50;99.90;;;;;;5039056;28;20436;-73
2022/12/02 02:22:10;;;;;;;34.47;19.77;;;3.60;99.90;;;;;;5046559;28;20443;-73
2022/12/02 02:24:35;;;;;;;33.97;19.48;;;3.50;99.90;;;;;;5042183;28;20494;-72
2022/12/02 02:27:01;;;;;;;32.70;18.87;;;3.50;99.90;;;;;;5015651;28;20912;-73
2022/12/02 02:29:27;;;;;;;35.95;19.75;;;3.50;99.90;;;;;;5032177;28;20797;-73
2022/12/02 02:31:53;;;;;;;35.65;19.45;;;3.50;99.90;;;;;;5044825;28;20412;-73
2022/12/02 02:34:19;;;;;;;38.50;21.27;;;3.60;99.90;;;;;;5046700;28;20931;-73
2022/12/02 02:36:44;;;;;;;35.70;19.52;;;3.60;99.90;;;;;;4996038;28;20422;-73
2022/12/02 02:39:10;;;;;;;36.63;19.87;;;3.60;99.90;;;;;;5029430;28;20442;-73
2022/12/02 02:41:36;;;;;;;34.47;19.80;;;3.60;99.90;;;;;;5025158;28;20441;-73
2022/12/02 02:44:02;;;;;;;36.15;20.48;;;3.60;99.90;;;;;;5017560;28;20421;-73
2022/12/02 02:46:28;;;;;;;34.47;20.20;;;3.60;99.90;;;;;;5033624;28;20451;-73
2022/12/02 02:48:54;;;;;;;35.37;20.23;;;3.60;99.90;;;;;;5049433;28;20493;-73
2022/12/02 02:51:20;;;;;;;34.38;18.80;;;3.60;99.90;;;;;;5034369;28;20475;-73
2022/12/02 02:53:45;;;;;;;36.97;19.73;;;3.60;99.90;;;;;;5028446;28;20413;-73
2022/12/02 02:56:11;;;;;;;35.73;19.77;;;3.60;99.90;;;;;;5046843;28;20467;-73
2022/12/02 02:58:37;;;;;;;38.00;20.48;;;3.60;99.90;;;;;;5049046;28;20527;-73
2022/12/02 03:01:28;;;;;;;35.47;19.85;;;3.60;99.90;;;;;;5040351;28;20415;-73
2022/12/02 03:03:58;;;;;;;35.65;19.17;;;3.60;99.90;;;;;;5032799;28;20416;-73
2022/12/02 03:06:27;;;;;;;37.97;20.25;;;3.60;99.90;;;;;;5029505;28;20718;-73
2022/12/02 03:08:53;;;;;;;37.20;19.65;;;3.60;99.90;;;;;;5043513;28;20427;-73
2022/12/02 03:11:21;;;;;;;36.80;19.83;;;3.60;99.90;;;;;;5027827;28;21625;-73
2022/12/02 03:13:49;;;;;;;40.08;21.13;;;3.60;99.90;;;;;;5018441;28;20760;-73
2022/12/02 03:16:17;;;;;;;40.87;21.77;;;3.60;99.90;;;;;;5040083;28;20399;-73
2022/12/02 03:18:45;;;;;;;38.15;20.23;;;3.60;99.90;;;;;;5045182;28;20757;-73
2022/12/02 03:21:12;;;;;;;40.57;22.33;;;3.60;99.90;;;;;;5034321;28;20399;-73
2022/12/02 03:23:38;;;;;;;43.80;21.65;;;3.60;99.90;;;;;;5029606;28;20457;-73
2022/12/02 03:26:04;;;;;;;48.03;23.80;;;3.60;99.90;;;;;;5030956;28;20501;-73
2022/12/02 03:28:31;;;;;;;45.42;23.20;;;3.60;99.90;;;;;;5030708;28;20404;-71
2022/12/02 03:30:57;;;;;;;48.47;23.27;;;3.60;99.90;;;;;;5031525;28;20403;-73
2022/12/02 03:33:23;;;;;;;49.40;24.27;;;3.50;99.90;;;;;;5041917;28;20411;-72
2022/12/02 03:35:48;;;;;;;51.80;25.33;;;3.50;99.90;;;;;;5027558;28;20487;-72
2022/12/02 03:38:14;;;;;;;46.15;24.45;;;3.60;99.90;;;;;;5028870;28;20403;-72
2022/12/02 03:40:40;;;;;;;50.15;24.75;;;3.50;99.90;;;;;;5045660;28;20413;-72
2022/12/02 03:43:06;;;;;;;49.55;25.02;;;3.60;99.90;;;;;;5027819;28;20909;-73
2022/12/02 03:45:32;;;;;;;45.55;23.92;;;3.50;99.90;;;;;;5033050;28;20441;-72
2022/12/02 03:47:59;;;;;;;50.60;25.13;;;3.60;99.90;;;;;;5046791;28;20484;-73
2022/12/02 03:50:25;;;;;;;49.42;24.23;;;3.50;99.90;;;;;;5028698;28;20403;-72
2022/12/02 03:52:50;;;;;;;49.43;25.93;;;3.50;99.90;;;;;;5013012;28;20410;-72
2022/12/02 03:55:16;;;;;;;50.33;24.43;;;3.50;99.90;;;;;;5027721;28;20417;-72
2022/12/02 03:57:42;;;;;;;50.42;25.77;;;3.50;99.90;;;;;;5026224;28;20840;-72
2022/12/02 04:00:10;;;;;;;51.90;25.02;;;3.50;99.90;;;;;;5015986;28;20433;-72
2022/12/02 04:02:36;;;;;;;52.42;25.13;;;3.50;99.90;;;;;;5038385;28;20443;-73
2022/12/02 04:05:01;;;;;;;50.67;25.03;;;3.50;99.90;;;;;;5027981;28;20806;-73
2022/12/02 04:07:27;;;;;;;54.10;26.30;;;3.50;99.90;;;;;;5003907;28;20410;-72
2022/12/02 04:09:52;;;;;;;53.65;24.80;;;3.50;99.90;;;;;;5016946;28;20409;-72
2022/12/02 04:12:18;;;;;;;51.80;25.93;;;3.50;99.90;;;;;;5043263;28;20394;-72
2022/12/02 04:14:44;;;;;;;53.58;25.38;;;3.50;99.90;;;;;;5046585;28;20838;-73
2022/12/02 04:17:09;;;;;;;55.40;26.77;;;3.50;99.90;;;;;;5037991;28;20834;-73
2022/12/02 04:19:35;;;;;;;57.03;26.98;;;3.50;99.90;;;;;;5030768;28;20520;-73
2022/12/02 04:22:01;;;;;;;53.15;26.48;;;3.50;99.90;;;;;;5047841;28;20412;-73
2022/12/02 04:24:27;;;;;;;54.45;25.77;;;3.50;99.90;;;;;;5035763;28;20409;-72
2022/12/02 04:26:54;;;;;;;57.83;27.17;;;3.50;99.90;;;;;;5038712;28;20415;-72
2022/12/02 04:29:20;;;;;;;56.33;26.70;;;3.50;99.90;;;;;;5034766;28;20402;-73
2022/12/02 04:31:46;;;;;;;56.17;27.02;;;3.50;99.90;;;;;;5037756;28;20414;-72
2022/12/02 04:34:11;;;;;;;53.40;25.70;;;3.50;99.90;;;;;;5028640;28;20406;-72
2022/12/02 04:36:37;;;;;;;52.67;26.17;;;3.50;99.90;;;;;;5028817;28;20824;-73
2022/12/02 04:39:02;;;;;;;55.83;26.65;;;3.50;99.90;;;;;;5043956;28;20421;-73
2022/12/02 04:41:28;;;;;;;52.53;26.27;;;3.60;99.90;;;;;;5020137;28;20785;-72
2022/12/02 04:43:54;;;;;;;54.90;26.60;;;3.50;99.90;;;;;;5032837;28;20406;-72
2022/12/02 04:46:19;;;;;;;58.58;27.08;;;3.60;99.90;;;;;;5028066;28;20560;-72
2022/12/02 04:48:45;;;;;;;59.50;26.57;;;3.60;99.90;;;;;;5023140;28;20822;-72
2022/12/02 04:51:10;;;;;;;56.58;26.83;;;3.60;99.90;;;;;;5036335;28;20405;-73
2022/12/02 04:53:36;;;;;;;57.70;27.07;;;3.60;99.90;;;;;;5040501;28;20959;-72
2022/12/02 04:56:02;;;;;;;55.33;26.73;;;3.60;99.90;;;;;;5028127;28;20426;-72
2022/12/02 04:58:27;;;;;;;57.10;26.43;;;3.60;99.90;;;;;;5042568;28;20402;-73
2022/12/02 05:00:53;;;;;;;54.60;26.13;;;3.60;99.90;;;;;;5038614;28;20454;-73
2022/12/02 05:03:18;;;;;;;56.65;26.67;;;3.60;99.90;;;;;;5042750;28;21448;-73
2022/12/02 05:05:44;;;;;;;58.70;27.70;;;3.60;99.90;;;;;;5047407;28;20400;-72
2022/12/02 05:08:10;;;;;;;56.40;26.48;;;3.60;99.90;;;;;;5031630;28;20422;-72
2022/12/02 05:10:35;;;;;;;58.30;26.27;;;3.60;99.90;;;;;;5040133;28;20409;-73
2022/12/02 05:13:01;;;;;;;59.40;27.03;;;3.60;99.90;;;;;;5035483;28;20422;-72
2022/12/02 05:15:26;;;;;;;57.28;26.58;;;3.60;99.90;;;;;;5040204;28;20409;-73
2022/12/02 05:17:52;;;;;;;60.90;27.97;;;3.60;99.90;;;;;;5048023;28;20777;-73
2022/12/02 05:20:17;;;;;;;59.92;27.20;;;3.60;99.90;;;;;;5030160;28;20431;-73
2022/12/02 05:22:43;;;;;;;54.83;26.47;;;3.60;99.90;;;;;;5045734;28;20409;-73
2022/12/02 05:25:09;;;;;;;60.17;28.17;;;3.60;99.90;;;;;;5044374;28;20405;-73
2022/12/02 05:27:35;;;;;;;58.63;27.83;;;3.60;99.90;;;;;;5050724;28;20397;-74
2022/12/02 05:30:00;;;;;;;58.90;27.80;;;3.60;99.90;;;;;;5050434;28;20426;-73
2022/12/02 05:32:26;;;;;;;59.93;27.57;;;3.60;99.90;;;;;;5049209;28;20411;-73
2022/12/02 05:34:51;;;;;;;57.55;27.33;;;3.60;99.90;;;;;;5032254;28;20409;-73
2022/12/02 05:37:17;;;;;;;60.30;28.23;;;3.60;99.90;;;;;;5048239;28;20813;-74
2022/12/02 05:39:42;;;;;;;59.20;28.15;;;3.60;99.90;;;;;;5043651;28;20429;-73
2022/12/02 05:42:13;;;;;;;60.83;28.07;;;3.60;99.90;;;;;;5049046;28;20459;-73
2022/12/02 05:44:41;;;;;;;59.33;28.60;;;3.60;99.90;;;;;;5049443;28;20437;-73
2022/12/02 05:47:17;;;;;;;56.75;27.02;;;3.60;99.90;;;;;;5030483;28;20420;-73
2022/12/02 05:49:44;;;;;;;60.15;28.52;;;3.60;99.90;;;;;;5032604;28;20403;-74
2022/12/02 05:52:26;;;;;;;56.85;28.15;;;3.60;99.90;;;;;;5032850;28;20426;-73
2022/12/02 05:54:56;;;;;;;58.78;27.48;;;3.60;99.90;;;;;;5031321;28;20415;-73
2022/12/02 05:57:26;;;;;;;60.58;28.42;;;3.60;99.90;;;;;;5017437;28;20438;-74
2022/12/02 06:00:08;;;;;;;59.22;26.90;;;3.60;99.90;;;;;;5039933;28;20426;-74
2022/12/02 06:02:41;;;;;;;62.22;28.27;;;3.60;99.90;;;;;;5030476;28;20407;-72
2022/12/02 06:05:26;;;;;;;61.07;28.70;;;3.60;99.90;;;;;;5047483;28;20441;-73
2022/12/02 06:08:07;;;;;;;57.70;27.83;;;3.60;99.90;;;;;;5029223;28;20413;-73
2022/12/02 06:10:34;;;;;;;59.65;27.75;;;3.60;99.90;;;;;;5031968;28;20425;-73
2022/12/02 06:13:09;;;;;;;59.90;27.98;;;3.60;99.90;;;;;;5037665;28;20403;-76
2022/12/02 06:15:38;;;;;;;60.10;27.75;;;3.60;99.90;;;;;;5022153;28;20409;-73
2022/12/02 06:18:16;;;;;;;62.28;27.92;;;3.60;99.90;;;;;;5030870;28;20405;-73
2022/12/02 06:20:43;;;;;;;59.50;28.73;;;3.60;99.90;;;;;;5030470;28;20409;-73
2022/12/02 06:23:19;;;;;;;55.08;26.23;;;3.60;99.90;;;;;;5026004;28;20450;-73
2022/12/02 06:25:48;;;;;;;58.30;28.47;;;3.60;99.90;;;;;;5028487;28;20592;-73
2022/12/02 06:28:21;;;;;;;60.20;27.95;;;3.60;99.90;;;;;;5033721;28;20749;-72
2022/12/02 06:30:48;;;;;;;56.95;27.77;;;3.60;99.90;;;;;;5036574;28;20421;-73
2022/12/02 06:33:24;;;;;;;61.92;28.38;;;3.60;99.90;;;;;;5037357;28;20395;-73
2022/12/02 06:35:52;;;;;;;61.58;28.23;;;3.50;99.90;;;;;;5031759;28;20421;-73
2022/12/02 06:38:37;;;;;;;59.78;27.55;;;3.50;99.90;;;;;;5012414;28;20837;-73
2022/12/02 06:41:36;;;;;;;63.83;28.25;;;3.50;99.90;;;;;;5022255;28;20404;-75
2022/12/02 06:47:34;;;;;;;60.93;28.00;;;3.50;99.90;;;;;;5023951;28;20468;-74
2022/12/02 06:50:05;;;;;;;60.63;29.03;;;3.50;99.90;;;;;;5005598;28;20439;-73
2022/12/02 06:52:38;;;;;;;57.10;26.98;;;3.50;99.90;;;;;;5008646;28;20787;-73
2022/12/02 06:55:24;;;;;;;62.35;29.38;;;3.50;99.90;;;;;;5016426;28;20415;-73
2022/12/02 06:57:49;;;;;;;60.67;28.55;;;3.60;99.90;;;;;;5030771;28;20407;-73
2022/12/02 07:00:15;;;;;;;61.70;29.23;;;3.60;99.90;;;;;;5039895;28;20423;-73
2022/12/02 07:02:42;;;;;;;63.30;29.92;;;3.60;99.90;;;;;;5029391;28;20410;-72
2022/12/02 07:05:09;;;;;;;61.63;28.67;;;3.60;99.90;;;;;;5033232;28;20393;-73
2022/12/02 07:07:35;;;;;;;61.83;30.87;;;3.60;99.90;;;;;;5044948;28;20515;-72
2022/12/02 07:10:12;;;;;;;61.60;28.98;;;3.50;99.90;;;;;;5030697;28;20417;-72
2022/12/02 07:12:42;;;;;;;59.65;28.67;;;3.60;99.90;;;;;;5045807;28;20406;-73
2022/12/02 07:15:08;;;;;;;58.20;28.33;;;3.50;99.90;;;;;;5004368;28;20412;-73
2022/12/02 07:17:42;;;;;;;58.42;28.95;;;3.50;99.90;;;;;;5035766;28;20438;-73
2022/12/02 07:20:09;;;;;;;59.67;28.70;;;3.50;99.90;;;;;;5033670;28;20436;-73
2022/12/02 07:22:39;;;;;;;59.70;28.48;;;3.50;99.90;;;;;;5034346;28;20465;-72
2022/12/02 07:25:44;;;;;;;50.30;26.50;;;3.50;99.90;;;;;;5009485;28;20429;-72
2022/12/02 07:28:33;;;;;;;54.42;26.83;;;3.40;99.90;;;;;;5041002;28;20790;-72
2022/12/02 07:31:17;;;;;;;53.83;25.13;;;3.40;99.90;;;;;;5045410;28;20489;-72
2022/12/02 07:33:43;;;;;;;52.80;26.13;;;3.30;99.90;;;;;;5047763;28;20567;-72
2022/12/02 07:36:08;;;;;;;49.72;25.42;;;3.30;99.90;;;;;;5030475;28;20484;-72
2022/12/02 07:38:34;;;;;;;47.17;24.20;;;3.20;99.90;;;;;;5047234;28;20958;-72
2022/12/02 07:41:00;;;;;;;46.95;23.17;;;3.20;99.90;;;;;;5037103;28;20402;-72
2022/12/02 07:43:25;;;;;;;49.10;24.93;;;3.10;99.90;;;;;;5043532;28;20486;-72
2022/12/02 07:45:51;;;;;;;51.40;25.17;;;3.10;99.90;;;;;;5023272;28;20550;-72
2022/12/02 07:48:17;;;;;;;47.25;22.98;;;3.10;99.90;;;;;;5012577;28;20919;-72
2022/12/02 07:50:42;;;;;;;44.43;23.43;;;3.00;99.90;;;;;;5042074;28;20490;-72
2022/12/02 07:53:08;;;;;;;46.50;23.10;;;3.10;99.90;;;;;;5000046;28;20908;-72
2022/12/02 07:55:34;;;;;;;46.28;23.13;;;3.00;99.90;;;;;;5018169;28;20414;-72
2022/12/02 07:57:59;;;;;;;46.80;23.20;;;3.00;99.90;;;;;;5035446;28;20402;-72
2022/12/02 08:00:25;;;;;;;46.70;24.20;;;3.00;99.90;;;;;;5027446;28;20815;-72
2022/12/02 08:02:51;;;;;;;47.08;23.20;;;2.90;99.90;;;;;;5047786;28;20760;-73
2022/12/02 08:05:17;;;;;;;49.58;24.00;;;2.90;99.90;;;;;;5029275;28;20492;-72
2022/12/02 08:07:42;;;;;;;48.25;23.58;;;2.80;99.90;;;;;;5018633;28;20411;-72
2022/12/02 08:10:09;;;;;;;45.17;22.40;;;2.80;99.90;;;;;;5014935;28;20464;-73
2022/12/02 08:12:34;;;;;;;49.80;24.65;;;2.80;99.90;;;;;;5011698;28;20419;-72
2022/12/02 08:15:00;;;;;;;47.13;22.10;;;2.70;99.90;;;;;;5008962;28;20418;-72
2022/12/02 08:17:25;;;;;;;50.72;22.85;;;2.70;99.90;;;;;;5027555;28;20410;-72
2022/12/02 08:19:51;;;;;;;50.33;22.40;;;2.60;99.90;;;;;;5023033;28;20441;-72
2022/12/02 08:22:17;;;;;;;49.70;22.33;;;2.60;99.90;;;;;;5020136;28;20943;-72
2022/12/02 08:24:42;;;;;;;54.65;23.88;;;2.60;99.90;;;;;;5010388;28;21666;-72
2022/12/02 08:27:08;;;;;;;54.63;23.10;;;2.50;99.90;;;;;;5020540;28;20924;-72
2022/12/02 08:29:34;;;;;;;56.63;24.27;;;2.50;99.90;;;;;;5010501;28;20405;-72
2022/12/02 08:31:59;;;;;;;55.58;23.30;;;2.50;99.90;;;;;;5002208;28;20411;-72
2022/12/02 08:34:25;;;;;;;56.75;24.63;;;2.50;99.90;;;;;;5008866;28;20415;-73
2022/12/02 08:36:51;;;;;;;58.73;24.13;;;2.50;99.90;;;;;;5021682;28;20494;-72
2022/12/02 08:39:17;;;;;;;55.83;23.70;;;2.50;99.90;;;;;;5025879;28;20444;-72
2022/12/02 08:41:42;;;;;;;56.53;25.45;;;2.40;99.90;;;;;;5015527;28;20512;-72
2022/12/02 08:44:08;;;;;;;56.60;24.10;;;2.40;99.90;;;;;;5028408;28;21048;-72
2022/12/02 08:46:35;;;;;;;62.27;25.80;;;2.40;99.90;;;;;;5026996;28;20409;-72
2022/12/02 08:49:01;;;;;;;61.00;26.05;;;2.40;99.90;;;;;;5023911;28;20444;-72
2022/12/02 08:51:27;;;;;;;57.45;24.80;;;2.40;99.90;;;;;;5003074;28;20495;-72
2022/12/02 08:53:53;;;;;;;58.83;25.80;;;2.40;99.90;;;;;;5028514;28;20415;-72
2022/12/02 08:56:18;;;;;;;59.30;25.05;;;2.40;99.90;;;;;;5009961;28;20422;-72
2022/12/02 08:58:44;;;;;;;57.13;24.73;;;2.40;99.90;;;;;;5027692;28;20431;-73
2022/12/02 09:01:10;;;;;;;57.60;25.25;;;2.40;99.90;;;;;;5030607;28;20415;-72
2022/12/02 09:03:36;;;;;;;57.08;25.35;;;2.40;99.90;;;;;;5029254;28;21174;-72
2022/12/02 09:06:02;;;;;;;56.97;26.08;;;2.50;99.90;;;;;;5017946;28;20504;-73
2022/12/02 09:08:28;;;;;;;57.50;26.23;;;2.50;99.90;;;;;;5016740;28;20434;-73
2022/12/02 09:10:53;;;;;;;61.28;26.17;;;2.50;99.90;;;;;;5030613;28;20908;-73
2022/12/02 09:13:19;;;;;;;54.65;25.23;;;2.50;99.90;;;;;;5030863;28;20865;-73
2022/12/02 09:15:45;;;;;;;55.50;25.60;;;2.50;99.90;;;;;;5021552;28;20963;-72
2022/12/02 09:18:11;;;;;;;55.35;25.08;;;2.50;99.90;;;;;;5024082;28;20409;-72
2022/12/02 09:20:36;;;;;;;56.65;26.30;;;2.50;99.90;;;;;;5023544;28;20997;-72
2022/12/02 09:23:02;;;;;;;56.47;26.27;;;2.50;99.90;;;;;;5016951;28;20789;-73
2022/12/02 09:25:27;;;;;;;57.83;25.83;;;2.60;99.90;;;;;;5019923;28;20479;-73
2022/12/02 09:27:53;;;;;;;53.42;25.50;;;2.60;99.90;;;;;;5018913;28;20405;-73
2022/12/02 09:30:19;;;;;;;55.70;25.60;;;2.60;99.90;;;;;;5021305;28;20410;-73
2022/12/02 09:32:45;;;;;;;51.47;24.70;;;2.60;99.90;;;;;;5028324;28;20494;-73
2022/12/02 09:35:10;;;;;;;48.50;23.83;;;2.60;99.90;;;;;;5024153;28;20475;-74
2022/12/02 09:37:36;;;;;;;51.50;24.38;;;2.60;99.90;;;;;;4996882;28;20488;-73
2022/12/02 09:40:03;;;;;;;51.85;26.27;;;2.60;99.90;;;;;;5021922;28;20435;-73
2022/12/02 09:42:29;;;;;;;50.92;24.27;;;2.60;99.90;;;;;;5024496;28;20405;-73
2022/12/02 09:44:56;;;;;;;50.20;25.92;;;2.60;99.90;;;;;;5023009;28;20425;-73
2022/12/02 09:47:23;;;;;;;52.58;26.33;;;2.60;99.90;;;;;;5024114;28;20412;-74
2022/12/02 09:49:48;;;;;;;53.00;26.90;;;2.70;99.90;;;;;;5023022;28;20407;-73
2022/12/02 09:52:21;;;;;;;49.67;26.83;;;2.80;99.90;;;;;;5027085;28;20469;-73
2022/12/02 09:54:47;;;;;;;48.65;26.52;;;2.80;99.90;;;;;;5027409;28;20406;-73
2022/12/02 09:57:14;;;;;;;50.60;26.90;;;2.90;99.90;;;;;;5027817;28;20403;-73
2022/12/02 09:59:41;;;;;;;54.22;27.50;;;2.90;99.90;;;;;;5028183;28;20465;-72
2022/12/02 10:02:36;;;;;;;49.47;25.75;;;2.90;99.90;;;;;;5010811;28;20401;-73
2022/12/02 10:05:23;;;;;;;48.22;26.05;;;2.90;99.90;;;;;;5020310;28;20409;-73
2022/12/02 10:07:51;;;;;;;48.17;26.35;;;2.90;99.90;;;;;;5018097;28;20407;-73
2022/12/02 10:10:23;;;;;;;46.53;25.88;;;3.00;99.90;;;;;;5003799;28;20407;-73
2022/12/02 10:12:49;;;;;;;47.78;26.48;;;3.00;99.90;;;;;;5028526;28;20440;-73
2022/12/02 10:15:21;;;;;;;51.25;28.52;;;3.00;99.90;;;;;;4973254;28;20509;-73
2022/12/02 10:17:47;;;;;;;52.20;27.67;;;3.00;99.90;;;;;;4986409;28;20420;-73
2022/12/02 10:20:22;;;;;;;48.30;27.80;;;3.10;99.90;;;;;;4987281;28;20925;-73
2022/12/02 10:23:12;;;;;;;46.17;26.45;;;3.10;99.90;;;;;;5007289;28;20933;-73
2022/12/02 10:25:40;;;;;;;48.53;28.63;;;3.10;99.90;;;;;;5017485;28;20443;-72
2022/12/02 10:28:22;;;;;;;45.40;26.75;;;3.10;99.90;;;;;;5010125;28;20397;-72
2022/12/02 10:30:56;;;;;;;47.13;28.15;;;3.20;99.90;;;;;;5010127;28;20432;-73
2022/12/02 10:33:24;;;;;;;44.85;27.80;;;3.20;99.90;;;;;;5009401;28;20420;-73
2022/12/02 10:35:52;;;;;;;47.72;29.02;;;3.30;99.90;;;;;;5000685;28;20407;-73
2022/12/02 10:38:32;;;;;;;44.33;27.33;;;3.20;99.90;;;;;;5019449;28;20405;-72
2022/12/02 10:41:24;;;;;;;44.95;27.67;;;3.20;99.90;;;;;;5010223;28;20996;-73
2022/12/02 10:43:52;;;;;;;44.25;26.85;;;3.20;99.90;;;;;;5011362;28;20432;-73
2022/12/02 10:46:22;;;;;;;49.22;29.90;;;3.20;99.90;;;;;;5028824;28;20447;-72
2022/12/02 10:48:49;;;;;;;47.10;28.38;;;3.20;99.90;;;;;;5025678;28;20415;-73
2022/12/02 10:51:16;;;;;;;46.10;28.27;;;3.20;99.90;;;;;;5001752;28;20411;-73
2022/12/02 10:53:44;;;;;;;47.30;28.52;;;3.20;99.90;;;;;;4998802;28;20447;-73
2022/12/02 10:56:17;;;;;;;45.67;28.65;;;3.30;99.90;;;;;;5028713;28;20893;-73
2022/12/02 10:58:43;;;;;;;44.88;28.25;;;3.30;99.90;;;;;;5025901;28;20487;-73
2022/12/02 11:01:11;;;;;;;44.55;28.15;;;3.30;99.90;;;;;;4999707;28;20429;-73
2022/12/02 11:03:39;;;;;;;45.33;27.83;;;3.30;99.90;;;;;;5009168;28;20411;-72
2022/12/02 11:06:15;;;;;;;45.58;27.73;;;3.30;99.90;;;;;;5011708;28;20412;-73
2022/12/02 11:08:43;;;;;;;46.30;28.77;;;3.30;99.90;;;;;;5022181;28;20557;-73
2022/12/02 11:11:39;;;;;;;44.35;27.75;;;3.40;99.90;;;;;;5024031;28;20404;-73
2022/12/02 11:14:40;;;;;;;47.60;28.15;;;3.40;99.90;;;;;;4997164;28;20436;-72
2022/12/02 11:17:07;;;;;;;44.60;27.75;;;3.40;99.90;;;;;;5018491;28;20410;-73
2022/12/02 11:19:32;;;;;;;47.10;27.98;;;3.50;99.90;;;;;;5023069;28;20432;-71
2022/12/02 11:21:58;;;;;;;44.80;28.00;;;3.50;99.90;;;;;;5028728;28;20418;-74
2022/12/02 11:24:26;;;;;;;43.97;27.47;;;3.50;99.90;;;;;;5013653;28;20416;-74
2022/12/02 11:27:01;;;;;;;44.42;28.23;;;3.50;99.90;;;;;;5009884;28;20524;-72
2022/12/02 11:30:19;;;;;;;41.90;26.67;;;3.40;99.90;;;;;;5013358;28;20508;-72
2022/12/02 11:32:44;;;;;;;41.70;26.02;;;3.40;99.90;;;;;;5007636;28;20419;-71
2022/12/02 11:35:15;;;;;;;43.20;26.17;;;3.40;99.90;;;;;;5026890;28;21006;-72
2022/12/02 11:37:47;;;;;;;42.07;25.80;;;3.40;99.90;;;;;;5009463;28;20445;-71
2022/12/02 11:40:15;;;;;;;43.10;26.33;;;3.40;99.90;;;;;;5009256;28;20511;-72
2022/12/02 11:42:43;;;;;;;40.38;25.48;;;3.50;99.90;;;;;;5009244;28;20475;-72
2022/12/02 11:45:10;;;;;;;41.37;25.13;;;3.50;99.90;;;;;;5010515;28;20405;-73
2022/12/02 11:47:36;;;;;;;41.22;25.65;;;3.50;99.90;;;;;;5022384;28;20408;-72
2022/12/02 11:50:14;;;;;;;42.93;26.60;;;3.50;99.90;;;;;;5022084;28;20419;-73
2022/12/02 11:52:43;;;;;;;38.70;24.70;;;3.50;99.90;;;;;;4981882;28;20444;-73
2022/12/02 11:55:12;;;;;;;39.53;24.42;;;3.50;99.90;;;;;;5008319;28;20441;-72
2022/12/02 11:57:43;;;;;;;39.28;25.38;;;3.50;99.90;;;;;;4997082;28;20426;-73
2022/12/02 12:00:19;;;;;;;36.10;22.67;;;3.50;99.90;;;;;;5015882;28;20523;-73
2022/12/02 12:02:45;;;;;;;34.47;21.02;;;3.40;99.90;;;;;;5010758;28;20405;-73
2022/12/02 12:05:11;;;;;;;33.67;22.07;;;3.40;99.90;;;;;;5010188;28;20945;-73
2022/12/02 12:07:47;;;;;;;30.25;19.08;;;3.40;99.90;;;;;;5023651;28;20417;-73
2022/12/02 12:10:30;;;;;;;32.50;19.75;;;3.30;99.90;;;;;;5023644;28;20426;-72
2022/12/02 12:13:11;;;;;;;30.80;19.75;;;3.30;99.90;;;;;;5027521;28;20924;-72
2022/12/02 12:15:56;;;;;;;32.15;19.85;;;3.30;99.90;;;;;;5010291;28;20423;-72
2022/12/02 12:18:39;;;;;;;32.33;20.40;;;3.30;99.90;;;;;;5014610;28;20450;-73
2022/12/02 12:21:07;;;;;;;32.28;19.83;;;3.30;99.90;;;;;;5041573;28;20421;-73
2022/12/02 12:23:41;;;;;;;31.98;19.88;;;3.20;99.90;;;;;;5010529;28;20927;-72
2022/12/02 12:26:08;;;;;;;31.27;19.55;;;3.30;99.90;;;;;;5044692;28;20476;-73
2022/12/02 12:28:36;;;;;;;30.38;18.42;;;3.30;99.90;;;;;;5042593;28;20813;-73
2022/12/02 12:31:04;;;;;;;26.70;17.47;;;3.20;99.90;;;;;;5046613;28;20418;-73
2022/12/02 12:33:30;;;;;;;27.38;17.80;;;3.20;99.90;;;;;;5047234;28;20479;-72
2022/12/02 12:35:57;;;;;;;30.20;18.37;;;3.10;99.90;;;;;;5035304;28;20418;-72
2022/12/02 12:38:25;;;;;;;29.67;18.90;;;3.10;99.90;;;;;;5037597;28;20492;-73
2022/12/02 12:40:50;;;;;;;30.50;19.05;;;3.10;99.90;;;;;;5017006;28;20463;-73
2022/12/02 12:43:16;;;;;;;31.92;19.92;;;3.10;99.90;;;;;;5025877;28;20925;-73
2022/12/02 12:45:42;;;;;;;34.50;21.80;;;3.10;99.90;;;;;;5033364;28;20400;-72
2022/12/02 12:48:07;;;;;;;33.43;20.57;;;3.10;99.90;;;;;;5001797;28;20407;-73
2022/12/02 12:50:33;;;;;;;33.22;21.33;;;3.00;99.90;;;;;;5044106;28;20440;-73